Time;durP1;ratioP1;P1;durP2;ratioP2;P2;SDS_P1;SDS_P2;PMS_P1;PMS_P2;Temp;Humidity;BMP_temperature;BMP_pressure;BME280_temperature;BME280_humidity;BME280_pressure;Samples;Min_cycle;Max_cycle;Signal;HPM_P1;HPM_P2
2023/06/08 00:01:04;;;;;;;12.38;8.85;;;;;;;;;;5071281;28;20046;-63
2023/06/08 00:03:31;;;;;;;12.70;8.00;;;;;;;;;;5070983;28;20545;-63
2023/06/08 00:05:59;;;;;;;11.75;7.95;;;;;;;;;;5068825;28;20450;-63
2023/06/08 00:08:25;;;;;;;11.82;8.45;;;;;;;;;;5067748;28;20137;-62
2023/06/08 00:10:51;;;;;;;16.95;9.35;;;;;;;;;;5106457;27;20048;-62
2023/06/08 00:13:17;;;;;;;15.45;10.07;;;;;;;;;;5069339;28;20048;-62
2023/06/08 00:15:44;;;;;;;19.55;11.48;;;;;;;;;;5068805;28;20067;-62
2023/06/08 00:18:10;;;;;;;18.77;10.52;;;;;;;;;;5076474;28;20622;-62
2023/06/08 00:20:39;;;;;;;14.15;9.40;;;;;;;;;;5070795;28;20132;-62
2023/06/08 00:23:05;;;;;;;18.98;10.27;;;;;;;;;;5069044;28;20047;-62
2023/06/08 00:25:31;;;;;;;14.57;8.70;;;;;;;;;;5072639;28;20036;-62
2023/06/08 00:27:57;;;;;;;18.17;9.93;;;;;;;;;;5071149;28;20078;-61
2023/06/08 00:30:24;;;;;;;18.52;8.73;;;;;;;;;;5067904;28;20512;-61
2023/06/08 00:32:50;;;;;;;20.92;8.23;;;;;;;;;;5069406;28;20193;-62
2023/06/08 00:35:16;;;;;;;13.50;8.68;;;;;;;;;;5070676;28;20040;-61
2023/06/08 00:37:43;;;;;;;18.50;8.73;;;;;;;;;;5072396;28;20060;-62
2023/06/08 00:40:09;;;;;;;11.75;8.45;;;;;;;;;;5067313;28;20510;-62
2023/06/08 00:42:35;;;;;;;16.70;8.73;;;;;;;;;;5046999;28;20107;-62
2023/06/08 00:45:01;;;;;;;16.10;8.38;;;;;;;;;;5071502;28;20062;-62
2023/06/08 00:47:27;;;;;;;16.20;9.65;;;;;;;;;;5069963;28;20116;-62
2023/06/08 00:49:54;;;;;;;21.20;8.32;;;;;;;;;;5073340;28;20044;-61
2023/06/08 00:52:21;;;;;;;17.27;8.35;;;;;;;;;;5071389;28;20066;-63
2023/06/08 00:54:48;;;;;;;18.20;8.25;;;;;;;;;;5068545;28;20089;-62
2023/06/08 00:57:16;;;;;;;12.45;7.80;;;;;;;;;;5070993;28;20066;-63
2023/06/08 00:59:49;;;;;;;17.10;8.65;;;;;;;;;;5075294;28;20044;-63
2023/06/08 01:02:16;;;;;;;13.32;7.97;;;;;;;;;;5072070;28;20574;-63
2023/06/08 01:04:42;;;;;;;17.70;8.70;;;;;;;;;;5066056;28;20064;-63
2023/06/08 01:07:35;;;;;;;18.60;8.82;;;;;;;;;;5075385;28;20402;-62
2023/06/08 01:10:04;;;;;;;14.23;8.55;;;;;;;;;;5073274;28;20118;-63
2023/06/08 01:12:41;;;;;;;22.92;8.60;;;;;;;;;;5069273;28;20044;-62
2023/06/08 01:15:19;;;;;;;16.05;9.02;;;;;;;;;;5068842;28;20121;-61
2023/06/08 01:17:47;;;;;;;11.07;8.23;;;;;;;;;;5076471;28;20048;-62
2023/06/08 01:20:29;;;;;;;12.23;8.65;;;;;;;;;;5071929;28;20041;-62
2023/06/08 01:23:00;;;;;;;15.98;9.00;;;;;;;;;;5066416;28;20036;-62
2023/06/08 01:25:30;;;;;;;16.65;8.38;;;;;;;;;;5066424;28;20044;-62
2023/06/08 01:28:00;;;;;;;14.57;8.45;;;;;;;;;;5067489;28;20045;-62
2023/06/08 01:30:27;;;;;;;17.63;8.68;;;;;;;;;;5076649;28;20050;-62
2023/06/08 01:32:53;;;;;;;17.70;8.05;;;;;;;;;;5067260;28;20098;-62
2023/06/08 01:35:19;;;;;;;14.05;9.43;;;;;;;;;;5075308;28;20093;-62
2023/06/08 01:37:49;;;;;;;13.70;7.78;;;;;;;;;;5075000;28;20119;-63
2023/06/08 01:40:20;;;;;;;13.38;9.05;;;;;;;;;;5075620;28;20051;-62
2023/06/08 01:42:47;;;;;;;19.25;9.88;;;;;;;;;;5069716;28;20201;-62
2023/06/08 01:45:19;;;;;;;20.10;8.85;;;;;;;;;;5080751;28;20033;-62
2023/06/08 01:47:58;;;;;;;14.68;9.52;;;;;;;;;;5070414;28;20051;-62
2023/06/08 01:50:25;;;;;;;17.67;9.02;;;;;;;;;;5074514;28;20045;-62
2023/06/08 01:52:51;;;;;;;18.75;8.00;;;;;;;;;;5070771;28;20435;-62
2023/06/08 01:55:21;;;;;;;15.63;8.43;;;;;;;;;;5075623;28;20128;-62
2023/06/08 01:57:47;;;;;;;12.57;8.20;;;;;;;;;;5073825;28;20043;-63
2023/06/08 02:00:15;;;;;;;17.52;9.82;;;;;;;;;;5072004;28;20076;-62
2023/06/08 02:02:41;;;;;;;12.82;8.32;;;;;;;;;;5068027;28;20109;-62
2023/06/08 02:05:11;;;;;;;14.07;8.23;;;;;;;;;;5076239;28;20099;-62
2023/06/08 02:07:38;;;;;;;14.48;8.57;;;;;;;;;;5073815;28;20040;-62
2023/06/08 02:10:05;;;;;;;16.42;8.35;;;;;;;;;;5073003;28;20121;-62
2023/06/08 02:12:31;;;;;;;15.00;8.93;;;;;;;;;;5071000;28;20047;-62
2023/06/08 02:14:58;;;;;;;13.07;8.50;;;;;;;;;;5102630;28;20036;-62
2023/06/08 02:17:27;;;;;;;13.68;8.38;;;;;;;;;;5073225;28;20059;-62
2023/06/08 02:19:54;;;;;;;15.00;7.53;;;;;;;;;;5071308;28;20152;-62
2023/06/08 02:22:20;;;;;;;12.02;8.02;;;;;;;;;;5076252;28;20571;-61
2023/06/08 02:24:47;;;;;;;18.33;8.43;;;;;;;;;;5073750;28;20131;-62
2023/06/08 02:27:14;;;;;;;22.73;10.10;;;;;;;;;;5074343;28;20036;-62
2023/06/08 02:29:40;;;;;;;15.40;8.68;;;;;;;;;;5070003;28;20131;-62
2023/06/08 02:32:07;;;;;;;11.68;7.60;;;;;;;;;;5075880;28;20048;-62
2023/06/08 02:34:33;;;;;;;16.15;8.18;;;;;;;;;;5073375;28;20104;-62
2023/06/08 02:36:59;;;;;;;18.25;8.13;;;;;;;;;;5071330;28;20040;-61
2023/06/08 02:39:25;;;;;;;20.00;9.27;;;;;;;;;;5074400;28;20044;-62
2023/06/08 02:41:52;;;;;;;11.68;6.88;;;;;;;;;;5093302;28;20032;-61
2023/06/08 02:44:18;;;;;;;10.73;7.18;;;;;;;;;;5072524;28;20085;-61
2023/06/08 02:46:45;;;;;;;15.27;7.32;;;;;;;;;;5069301;28;20033;-61
2023/06/08 02:49:11;;;;;;;15.55;8.23;;;;;;;;;;5072179;28;20419;-62
2023/06/08 02:51:37;;;;;;;18.60;9.23;;;;;;;;;;5078019;28;20601;-61
2023/06/08 02:54:03;;;;;;;18.20;7.78;;;;;;;;;;5075804;28;20093;-61
2023/06/08 02:56:29;;;;;;;13.75;8.20;;;;;;;;;;5076363;28;20039;-62
2023/06/08 02:58:56;;;;;;;14.73;7.97;;;;;;;;;;5070344;28;20037;-62
2023/06/08 03:01:23;;;;;;;9.60;6.80;;;;;;;;;;5068912;28;20043;-62
2023/06/08 03:03:53;;;;;;;19.98;8.27;;;;;;;;;;5075949;28;20443;-62
2023/06/08 03:06:19;;;;;;;13.32;7.63;;;;;;;;;;5072894;28;20109;-62
2023/06/08 03:08:58;;;;;;;13.70;8.18;;;;;;;;;;5070302;28;20496;-62
2023/06/08 03:11:25;;;;;;;20.23;8.50;;;;;;;;;;5077741;28;20058;-62
2023/06/08 03:13:51;;;;;;;15.38;8.15;;;;;;;;;;5074507;28;20506;-62
2023/06/08 03:16:20;;;;;;;14.25;7.88;;;;;;;;;;5070824;28;20448;-62
2023/06/08 03:18:46;;;;;;;14.75;7.47;;;;;;;;;;5068978;28;20145;-62
2023/06/08 03:21:12;;;;;;;15.63;7.38;;;;;;;;;;5076062;28;20080;-62
2023/06/08 03:23:39;;;;;;;14.85;6.57;;;;;;;;;;5070254;28;20064;-62
2023/06/08 03:26:05;;;;;;;16.55;6.97;;;;;;;;;;5071360;28;20090;-62
2023/06/08 03:28:31;;;;;;;12.68;7.43;;;;;;;;;;5090032;28;20028;-62
2023/06/08 03:30:57;;;;;;;11.75;7.03;;;;;;;;;;5070838;28;20040;-62
2023/06/08 03:33:24;;;;;;;13.00;6.88;;;;;;;;;;5068810;28;20514;-62
2023/06/08 03:35:50;;;;;;;16.88;8.85;;;;;;;;;;5069012;28;20160;-63
2023/06/08 03:38:16;;;;;;;15.10;6.45;;;;;;;;;;5072204;28;20351;-63
2023/06/08 03:40:42;;;;;;;15.32;5.85;;;;;;;;;;5071313;28;20029;-62
2023/06/08 03:43:09;;;;;;;16.55;8.02;;;;;;;;;;5066940;28;20150;-62
2023/06/08 03:45:35;;;;;;;20.35;7.40;;;;;;;;;;5071533;28;20197;-62
2023/06/08 03:48:02;;;;;;;11.35;7.18;;;;;;;;;;5075008;28;20145;-62
2023/06/08 03:50:30;;;;;;;13.52;6.60;;;;;;;;;;5072024;28;20040;-62
2023/06/08 03:52:56;;;;;;;12.52;6.00;;;;;;;;;;5067968;28;20102;-62
2023/06/08 03:55:26;;;;;;;11.90;6.78;;;;;;;;;;5080285;28;20032;-62
2023/06/08 03:57:52;;;;;;;15.10;6.43;;;;;;;;;;5077318;28;20494;-62
2023/06/08 04:00:19;;;;;;;14.10;6.70;;;;;;;;;;5070910;28;20033;-62
2023/06/08 04:02:50;;;;;;;15.13;6.03;;;;;;;;;;5071832;28;20056;-63
2023/06/08 04:05:16;;;;;;;8.88;6.28;;;;;;;;;;5067666;28;20505;-62
2023/06/08 04:07:43;;;;;;;19.17;7.05;;;;;;;;;;5075860;28;20051;-62
2023/06/08 04:10:09;;;;;;;10.48;5.68;;;;;;;;;;5071429;28;20036;-62
2023/06/08 04:12:35;;;;;;;13.88;6.82;;;;;;;;;;5068375;28;20096;-62
2023/06/08 04:15:02;;;;;;;16.48;6.70;;;;;;;;;;5073898;28;20035;-62
2023/06/08 04:17:28;;;;;;;10.90;6.03;;;;;;;;;;5071010;28;20088;-62
2023/06/08 04:19:54;;;;;;;16.83;5.82;;;;;;;;;;5067857;28;20048;-62
2023/06/08 04:22:20;;;;;;;15.27;7.00;;;;;;;;;;5065303;28;20083;-63
2023/06/08 04:24:47;;;;;;;13.18;5.80;;;;;;;;;;5067450;28;20464;-62
2023/06/08 04:27:13;;;;;;;10.05;5.22;;;;;;;;;;5063149;28;20620;-62
2023/06/08 04:29:40;;;;;;;7.32;5.00;;;;;;;;;;5067414;28;20043;-65
2023/06/08 04:32:06;;;;;;;10.75;5.22;;;;;;;;;;5072990;28;20043;-63
2023/06/08 04:34:33;;;;;;;11.65;5.78;;;;;;;;;;5069336;28;20518;-62
2023/06/08 04:37:00;;;;;;;15.57;7.00;;;;;;;;;;5068341;28;20044;-62
2023/06/08 04:39:26;;;;;;;14.68;5.68;;;;;;;;;;5049851;28;20175;-62
2023/06/08 04:41:53;;;;;;;14.90;6.40;;;;;;;;;;5072182;28;20036;-62
2023/06/08 04:44:20;;;;;;;10.00;5.47;;;;;;;;;;5066376;28;20032;-62
2023/06/08 04:46:47;;;;;;;11.52;5.82;;;;;;;;;;5049159;28;20044;-63
2023/06/08 04:49:14;;;;;;;13.13;6.47;;;;;;;;;;5066284;28;20132;-62
2023/06/08 04:51:46;;;;;;;9.80;5.80;;;;;;;;;;5067469;28;20044;-62
2023/06/08 04:54:13;;;;;;;11.85;5.57;;;;;;;;;;5068317;28;20044;-62
2023/06/08 04:56:42;;;;;;;13.20;6.07;;;;;;;;;;5072630;28;20044;-63
2023/06/08 04:59:09;;;;;;;18.17;6.05;;;;;;;;;;5068917;28;20094;-63
2023/06/08 05:01:35;;;;;;;15.52;7.82;;;;;;;;;;5071850;28;20044;-63
2023/06/08 05:04:02;;;;;;;15.35;6.95;;;;;;;;;;5068325;28;20037;-63
2023/06/08 05:06:28;;;;;;;15.00;5.70;;;;;;;;;;5068620;28;20209;-63
2023/06/08 05:08:54;;;;;;;13.00;6.10;;;;;;;;;;5074412;28;20036;-63
2023/06/08 05:11:20;;;;;;;10.90;5.60;;;;;;;;;;5073613;28;20147;-63
2023/06/08 05:13:46;;;;;;;11.88;6.10;;;;;;;;;;5075707;28;20047;-63
2023/06/08 05:16:15;;;;;;;15.07;6.68;;;;;;;;;;5070445;28;20453;-62
2023/06/08 05:18:41;;;;;;;15.02;5.50;;;;;;;;;;5080077;28;20055;-63
2023/06/08 05:21:07;;;;;;;11.65;6.25;;;;;;;;;;5073420;28;20029;-62
2023/06/08 05:23:33;;;;;;;11.18;4.80;;;;;;;;;;5071504;28;20028;-63
2023/06/08 05:26:00;;;;;;;13.98;6.18;;;;;;;;;;5070650;28;20033;-63
2023/06/08 05:28:26;;;;;;;20.35;6.60;;;;;;;;;;5078743;28;20056;-63
2023/06/08 05:30:52;;;;;;;11.30;5.78;;;;;;;;;;5073432;28;20331;-63
2023/06/08 05:33:18;;;;;;;10.00;5.57;;;;;;;;;;5070320;28;20182;-63
2023/06/08 05:35:44;;;;;;;14.93;6.80;;;;;;;;;;5076120;28;20044;-63
2023/06/08 05:38:10;;;;;;;16.67;6.68;;;;;;;;;;5068084;28;20102;-63
2023/06/08 05:40:37;;;;;;;14.77;5.75;;;;;;;;;;5069717;28;20144;-63
2023/06/08 05:43:03;;;;;;;20.23;6.18;;;;;;;;;;5068766;28;20097;-63
2023/06/08 05:45:29;;;;;;;16.27;6.22;;;;;;;;;;5071158;28;20033;-63
2023/06/08 05:47:55;;;;;;;11.82;5.68;;;;;;;;;;5067339;28;20032;-63
2023/06/08 05:50:21;;;;;;;14.32;4.60;;;;;;;;;;5071310;28;20486;-63
2023/06/08 05:52:47;;;;;;;10.05;5.80;;;;;;;;;;5099271;27;20089;-63
2023/06/08 05:55:14;;;;;;;12.00;5.20;;;;;;;;;;5067630;28;20415;-63
2023/06/08 05:57:40;;;;;;;11.93;6.35;;;;;;;;;;5069867;28;20036;-63
2023/06/08 06:00:10;;;;;;;13.63;5.47;;;;;;;;;;5074163;28;20036;-63
2023/06/08 06:02:36;;;;;;;13.23;6.50;;;;;;;;;;5071563;28;20049;-63
2023/06/08 06:05:02;;;;;;;16.17;6.30;;;;;;;;;;5068245;28;20155;-63
2023/06/08 06:07:29;;;;;;;11.40;6.65;;;;;;;;;;5077812;28;20133;-63
2023/06/08 06:09:55;;;;;;;18.83;7.90;;;;;;;;;;5071888;28;20549;-63
2023/06/08 06:12:21;;;;;;;12.27;6.07;;;;;;;;;;5070555;28;20466;-63
2023/06/08 06:14:48;;;;;;;16.30;6.40;;;;;;;;;;5060388;28;20071;-63
2023/06/08 06:17:15;;;;;;;10.85;5.13;;;;;;;;;;5078491;28;20094;-63
2023/06/08 06:19:42;;;;;;;11.30;5.53;;;;;;;;;;5070841;28;20040;-63
2023/06/08 06:22:09;;;;;;;9.85;5.40;;;;;;;;;;5077879;28;20036;-63
2023/06/08 06:24:36;;;;;;;13.18;6.10;;;;;;;;;;5077543;28;20587;-62
2023/06/08 06:27:02;;;;;;;15.55;6.55;;;;;;;;;;5069713;28;20488;-62
2023/06/08 06:29:28;;;;;;;12.80;6.43;;;;;;;;;;5069066;28;20083;-63
2023/06/08 06:31:55;;;;;;;13.63;6.15;;;;;;;;;;5074381;28;20072;-63
2023/06/08 06:34:21;;;;;;;9.77;5.68;;;;;;;;;;5076327;28;20060;-64
2023/06/08 06:36:47;;;;;;;9.57;6.35;;;;;;;;;;5072904;28;20041;-63
2023/06/08 06:39:14;;;;;;;12.40;5.78;;;;;;;;;;5070334;28;20048;-62
2023/06/08 06:41:40;;;;;;;12.98;6.43;;;;;;;;;;5069538;28;20095;-63
2023/06/08 06:44:07;;;;;;;10.82;5.80;;;;;;;;;;5103807;27;20078;-62
2023/06/08 06:46:33;;;;;;;19.95;6.32;;;;;;;;;;5073312;28;20379;-63
2023/06/08 06:49:00;;;;;;;9.95;5.57;;;;;;;;;;5069738;28;20044;-63
2023/06/08 06:51:26;;;;;;;16.88;5.97;;;;;;;;;;5070123;28;20083;-63
2023/06/08 06:53:52;;;;;;;13.27;5.53;;;;;;;;;;5077297;28;20379;-63
2023/06/08 06:56:18;;;;;;;13.88;6.68;;;;;;;;;;5074342;28;20044;-63
2023/06/08 06:58:44;;;;;;;12.77;5.60;;;;;;;;;;5070906;28;20069;-63
2023/06/08 07:01:15;;;;;;;10.00;4.82;;;;;;;;;;5071599;28;20140;-63
2023/06/08 07:03:43;;;;;;;17.13;6.55;;;;;;;;;;5069775;28;20124;-63
2023/06/08 07:06:10;;;;;;;10.82;5.43;;;;;;;;;;5072274;28;20036;-63
2023/06/08 07:08:36;;;;;;;11.60;6.00;;;;;;;;;;5074051;28;20124;-63
2023/06/08 07:11:02;;;;;;;14.60;5.32;;;;;;;;;;5070310;28;20127;-63
2023/06/08 07:13:28;;;;;;;10.85;5.35;;;;;;;;;;5068655;28;20142;-63
2023/06/08 07:15:55;;;;;;;20.52;6.28;;;;;;;;;;5071222;28;20040;-63
2023/06/08 07:18:21;;;;;;;16.38;6.28;;;;;;;;;;5077958;28;20063;-63
2023/06/08 07:20:47;;;;;;;11.98;6.03;;;;;;;;;;5068566;28;20059;-63
2023/06/08 07:23:13;;;;;;;10.15;5.90;;;;;;;;;;5071260;28;20029;-63
2023/06/08 07:25:39;;;;;;;10.65;5.05;;;;;;;;;;5070057;28;20043;-63
2023/06/08 07:28:06;;;;;;;18.60;5.72;;;;;;;;;;5056927;28;20036;-63
2023/06/08 07:30:32;;;;;;;14.85;7.50;;;;;;;;;;5069348;28;20377;-63
2023/06/08 07:33:02;;;;;;;11.70;5.97;;;;;;;;;;5070600;28;20041;-63
2023/06/08 07:35:28;;;;;;;9.05;4.95;;;;;;;;;;5077999;28;20043;-63
2023/06/08 07:37:55;;;;;;;9.85;5.38;;;;;;;;;;5077329;28;20107;-63
2023/06/08 07:40:21;;;;;;;15.02;5.43;;;;;;;;;;5070817;28;20477;-63
2023/06/08 07:42:47;;;;;;;9.18;4.85;;;;;;;;;;5070011;28;20093;-63
2023/06/08 07:45:13;;;;;;;12.88;4.43;;;;;;;;;;5068187;28;20036;-63
2023/06/08 07:47:41;;;;;;;13.25;5.63;;;;;;;;;;5076696;28;20040;-62
2023/06/08 07:50:08;;;;;;;13.77;4.93;;;;;;;;;;5070436;28;20475;-63
2023/06/08 07:52:34;;;;;;;7.05;4.60;;;;;;;;;;5068900;28;20047;-63
2023/06/08 07:55:00;;;;;;;9.70;4.55;;;;;;;;;;5075321;28;20668;-63
2023/06/08 07:57:27;;;;;;;11.80;4.05;;;;;;;;;;5055699;28;20044;-63
2023/06/08 07:59:53;;;;;;;10.13;4.55;;;;;;;;;;5081890;28;20037;-63
2023/06/08 08:02:20;;;;;;;12.10;5.40;;;;;;;;;;5061480;28;20036;-63
2023/06/08 08:04:46;;;;;;;12.27;4.43;;;;;;;;;;5069855;28;20266;-63
2023/06/08 08:07:12;;;;;;;10.10;5.38;;;;;;;;;;5102230;27;20041;-63
2023/06/08 08:09:41;;;;;;;10.52;5.05;;;;;;;;;;5071866;28;20055;-64
2023/06/08 08:12:08;;;;;;;11.68;4.72;;;;;;;;;;5068053;28;20032;-63
2023/06/08 08:14:34;;;;;;;10.80;4.15;;;;;;;;;;5074473;28;20041;-63
2023/06/08 08:17:00;;;;;;;7.00;4.82;;;;;;;;;;5067547;28;20484;-63
2023/06/08 08:19:26;;;;;;;12.55;5.72;;;;;;;;;;5085641;28;20088;-63
2023/06/08 08:21:52;;;;;;;12.70;4.88;;;;;;;;;;5076386;28;20032;-63
2023/06/08 08:24:18;;;;;;;11.98;5.60;;;;;;;;;;5072735;28;20067;-63
2023/06/08 08:26:45;;;;;;;13.98;6.65;;;;;;;;;;5070729;28;20341;-63
2023/06/08 08:29:11;;;;;;;11.23;5.10;;;;;;;;;;5071522;28;20046;-63
2023/06/08 08:31:37;;;;;;;9.13;4.65;;;;;;;;;;5067184;28;20439;-63
2023/06/08 08:34:03;;;;;;;16.55;6.03;;;;;;;;;;5068940;28;20037;-63
2023/06/08 08:36:30;;;;;;;7.85;4.43;;;;;;;;;;5073167;28;20047;-63
2023/06/08 08:38:56;;;;;;;13.15;4.95;;;;;;;;;;5073083;28;20040;-63
2023/06/08 08:41:26;;;;;;;9.55;5.07;;;;;;;;;;5072528;28;20033;-63
2023/06/08 08:44:00;;;;;;;10.52;5.07;;;;;;;;;;5068065;28;20391;-63
2023/06/08 08:46:27;;;;;;;9.45;5.00;;;;;;;;;;5068728;28;20041;-63
2023/06/08 08:48:57;;;;;;;17.35;5.57;;;;;;;;;;5067797;28;20052;-63
2023/06/08 08:51:23;;;;;;;9.85;5.10;;;;;;;;;;5072589;28;20036;-63
2023/06/08 08:53:51;;;;;;;13.43;6.03;;;14.40;99.90;;;;;;5079684;28;20081;-63
2023/06/08 08:56:21;;;;;;;11.52;6.05;;;16.50;99.90;;;;;;5058892;28;20040;-63
2023/06/08 08:58:48;;;;;;;10.77;5.68;;;16.50;99.90;;;;;;5072684;28;20087;-63
2023/06/08 09:01:15;;;;;;;14.55;5.22;;;16.50;99.90;;;;;;5088559;28;20083;-63
2023/06/08 09:03:40;;;;;;;10.65;4.82;;;16.60;99.90;;;;;;5071853;28;20495;-63
2023/06/08 09:06:07;;;;;;;12.50;5.22;;;16.60;99.90;;;;;;5074449;28;20076;-62
2023/06/08 09:08:33;;;;;;;9.45;5.20;;;16.70;99.90;;;;;;5074150;28;20491;-63
2023/06/08 09:11:04;;;;;;;10.32;5.10;;;;;;;;;;5078743;28;20036;-63
2023/06/08 09:13:31;;;;;;;14.65;4.68;;;;;;;;;;5070860;28;20037;-63
2023/06/08 09:15:57;;;;;;;7.68;4.63;;;;;;;;;;5071846;28;20040;-62
2023/06/08 09:18:23;;;;;;;11.23;4.40;;;;;;;;;;5071349;28;20060;-62
2023/06/08 09:20:51;;;;;;;10.13;4.30;;;;;;;;;;5072595;28;20097;-62
2023/06/08 09:23:24;;;;;;;11.45;5.20;;;;;;;;;;5072067;28;20036;-64
2023/06/08 09:25:51;;;;;;;;;;;;;;;;;;5073008;28;20557;-63
2023/06/08 09:28:31;;;;;;;11.00;4.45;;;;;;;;;;5081971;28;19916;-62
2023/06/08 09:31:00;;;;;;;10.88;4.40;;;;;;;;;;5086600;28;20032;-63
2023/06/08 09:33:32;;;;;;;11.73;4.93;;;16.70;99.90;;;;;;5075077;28;20306;-63
2023/06/08 09:35:58;;;;;;;14.35;5.45;;;;;;;;;;5070784;28;20044;-63
2023/06/08 09:38:26;;;;;;;7.55;3.38;;;;;;;;;;5078866;28;20060;-62
2023/06/08 09:41:11;;;;;;;8.82;4.13;;;;;;;;;;5071274;28;20160;-63
2023/06/08 09:43:38;;;;;;;9.43;5.15;;;;;;;;;;5074413;28;20152;-63
2023/06/08 09:46:04;;;;;;;7.07;3.88;;;;;;;;;;5083928;28;20142;-63
2023/06/08 09:48:30;;;;;;;10.32;4.35;;;;;;;;;;5071648;28;20032;-62
2023/06/08 09:51:00;;;;;;;7.38;3.85;;;;;;;;;;5068615;28;20071;-63
2023/06/08 09:53:27;;;;;;;9.70;4.93;;;;;;;;;;5072722;28;20119;-63
2023/06/08 09:55:54;;;;;;;8.85;4.97;;;;;;;;;;5076308;28;20054;-63
2023/06/08 09:58:25;;;;;;;9.13;4.85;;;;;;;;;;5073738;28;20250;-63
2023/06/08 10:00:52;;;;;;;9.60;4.57;;;;;;;;;;5070105;28;20098;-63
2023/06/08 10:03:38;;;;;;;15.18;5.50;;;;;;;;;;5072664;28;20036;-63
2023/06/08 10:06:08;;;;;;;13.30;4.72;;;;;;;;;;5069071;28;20040;-62
2023/06/08 10:08:37;;;;;;;7.38;4.07;;;;;;;;;;5071209;28;20182;-62
2023/06/08 10:11:04;;;;;;;8.15;4.28;;;;;;;;;;5073408;28;20423;-62
2023/06/08 10:13:30;;;;;;;7.28;3.85;;;;;;;;;;5072640;28;20063;-62
2023/06/08 10:15:56;;;;;;;6.53;3.45;;;;;;;;;;5076828;28;20055;-62
2023/06/08 10:18:23;;;;;;;7.38;3.50;;;;;;;;;;5072175;28;20137;-62
2023/06/08 10:20:49;;;;;;;9.63;4.15;;;;;;;;;;5071375;28;20040;-62
2023/06/08 10:23:15;;;;;;;18.20;4.53;;;;;;;;;;5073552;28;20043;-62
2023/06/08 10:25:44;;;;;;;12.52;4.70;;;;;;;;;;5076751;28;20121;-63
2023/06/08 10:28:10;;;;;;;9.20;4.63;;;;;;;;;;5069961;28;20105;-63
2023/06/08 10:30:41;;;;;;;7.93;3.95;;;;;;;;;;5068904;28;20055;-62
2023/06/08 10:33:11;;;;;;;14.68;5.80;;;;;;;;;;5065895;28;20365;-62
2023/06/08 10:35:40;;;;;;;7.93;4.40;;;;;;;;;;5074131;28;20036;-62
2023/06/08 10:38:09;;;;;;;12.52;4.68;;;;;;;;;;5069988;28;20100;-63
2023/06/08 10:40:46;;;;;;;9.32;4.68;;;;;;;;;;5062498;28;20036;-62
2023/06/08 10:43:12;;;;;;;8.18;5.22;;;;;;;;;;5079801;28;20188;-62
2023/06/08 10:45:40;;;;;;;12.20;4.97;;;;;;;;;;5071248;28;20036;-62
2023/06/08 10:48:10;;;;;;;12.63;5.47;;;;;;;;;;5070162;28;20036;-62
2023/06/08 10:50:37;;;;;;;12.05;6.25;;;;;;;;;;5071388;28;20048;-62
2023/06/08 10:53:04;;;;;;;7.35;4.70;;;;;;;;;;5071223;28;20456;-62
2023/06/08 10:55:30;;;;;;;8.77;4.65;;;;;;;;;;5070724;28;20047;-61
2023/06/08 10:58:05;;;;;;;6.60;3.90;;;;;;;;;;5070329;28;20044;-62
2023/06/08 11:00:33;;;;;;;9.85;3.88;;;;;;;;;;5071884;28;20048;-62
2023/06/08 11:03:06;;;;;;;6.32;3.83;;;;;;;;;;5075346;28;20123;-62
2023/06/08 11:05:36;;;;;;;9.20;4.18;;;;;;;;;;5084479;28;20062;-62
2023/06/08 11:08:03;;;;;;;11.23;4.15;;;;;;;;;;5070962;28;20067;-62
2023/06/08 11:10:33;;;;;;;8.15;4.57;;;17.10;99.90;;;;;;5065780;28;20134;-62
2023/06/08 11:13:12;;;;;;;8.63;3.83;;;;;;;;;;5064794;28;20036;-62
2023/06/08 11:15:39;;;;;;;9.52;3.80;;;;;;;;;;5071270;28;20040;-62
2023/06/08 11:18:07;;;;;;;14.43;4.85;;;;;;;;;;5071133;28;20064;-63
2023/06/08 11:20:34;;;;;;;12.32;3.75;;;;;;;;;;5076207;28;20124;-62
2023/06/08 11:23:02;;;;;;;6.93;3.45;;;;;;;;;;5102475;27;20041;-62
2023/06/08 11:25:29;;;;;;;10.00;3.60;;;;;;;;;;5067817;28;20099;-62
2023/06/08 11:27:57;;;;;;;7.28;3.63;;;;;;;;;;5070034;28;20376;-62
2023/06/08 11:30:28;;;;;;;7.75;3.72;;;;;;;;;;5074670;28;20060;-62
2023/06/08 11:32:54;;;;;;;10.90;4.15;;;;;;;;;;5069378;28;20047;-62
2023/06/08 11:35:21;;;;;;;9.77;3.88;;;;;;;;;;5065599;28;20441;-62
2023/06/08 11:37:51;;;;;;;8.63;3.90;;;;;;;;;;5078724;28;20047;-62
2023/06/08 11:40:17;;;;;;;8.02;3.53;;;;;;;;;;5069122;28;20446;-63
2023/06/08 11:42:44;;;;;;;6.32;3.50;;;;;;;;;;5061559;28;20048;-62
2023/06/08 11:45:11;;;;;;;12.20;3.67;;;;;;;;;;5066603;28;20064;-62
2023/06/08 11:47:40;;;;;;;9.20;4.10;;;;;;;;;;5078012;28;20510;-62
2023/06/08 11:50:07;;;;;;;10.30;4.10;;;;;;;;;;5071406;28;20047;-62
2023/06/08 11:52:33;;;;;;;7.07;3.67;;;;;;;;;;5078692;28;20507;-62
2023/06/08 11:55:01;;;;;;;8.40;3.55;;;;;;;;;;5068202;28;20052;-62
2023/06/08 11:57:40;;;;;;;6.53;3.53;;;;;;;;;;5068044;28;20052;-62
2023/06/08 12:00:14;;;;;;;9.13;3.67;;;;;;;;;;5067655;28;20040;-62
2023/06/08 12:02:41;;;;;;;10.60;4.10;;;;;;;;;;5069312;28;20193;-62
2023/06/08 12:05:14;;;;;;;10.63;3.80;;;;;;;;;;5076543;28;20224;-62
2023/06/08 12:07:40;;;;;;;6.68;3.80;;;;;;;;;;5092160;28;20032;-62
2023/06/08 12:10:06;;;;;;;7.25;3.22;;;;;;;;;;5073062;28;20044;-63
2023/06/08 12:12:33;;;;;;;8.60;4.35;;;;;;;;;;5067287;28;20048;-62
2023/06/08 12:14:59;;;;;;;5.63;3.30;;;;;;;;;;5068108;28;20540;-62
2023/06/08 12:17:26;;;;;;;8.10;3.42;;;;;;;;;;5079953;28;20051;-62
2023/06/08 12:19:55;;;;;;;5.13;3.28;;;;;;;;;;5071059;28;20045;-63
2023/06/08 12:22:21;;;;;;;6.38;3.40;;;;;;;;;;5066630;28;20040;-62
2023/06/08 12:24:48;;;;;;;8.90;3.10;;;;;;;;;;5073871;28;20460;-62
2023/06/08 12:27:14;;;;;;;7.60;3.28;;;;;;;;;;5069145;28;20032;-62
2023/06/08 12:29:41;;;;;;;8.05;3.17;;;;;;;;;;5067997;28;20455;-62
2023/06/08 12:32:08;;;;;;;6.95;3.58;;;;;;;;;;5075837;28;20040;-63
2023/06/08 12:34:34;;;;;;;12.00;3.85;;;;;;;;;;5072533;28;20139;-63
2023/06/08 12:37:00;;;;;;;9.48;4.80;;;;;;;;;;5066222;28;20036;-63
2023/06/08 12:39:26;;;;;;;8.02;3.60;;;;;;;;;;5073431;28;20035;-63
2023/06/08 12:41:52;;;;;;;7.88;3.75;;;;;;;;;;5080808;28;20040;-62
2023/06/08 12:44:19;;;;;;;7.63;3.38;;;;;;;;;;5067187;28;20032;-63
2023/06/08 12:46:45;;;;;;;8.50;3.90;;;;;;;;;;5070077;28;20044;-63
2023/06/08 12:49:11;;;;;;;10.50;4.10;;;;;;;;;;5068227;28;20045;-62
2023/06/08 12:51:37;;;;;;;10.55;4.40;;;;;;;;;;5067397;28;20139;-62
2023/06/08 12:54:03;;;;;;;6.75;2.90;;;;;;;;;;5067993;28;20044;-62
2023/06/08 12:56:29;;;;;;;5.60;3.22;;;;;;;;;;5074423;28;20037;-62
2023/06/08 12:58:55;;;;;;;6.00;2.95;;;;;;;;;;5065260;28;20033;-62
2023/06/08 13:01:22;;;;;;;12.52;3.50;;;;;;;;;;5073187;28;20071;-62
2023/06/08 13:03:48;;;;;;;6.22;2.30;;;;;;;;;;5050465;28;20049;-62
2023/06/08 13:06:15;;;;;;;10.93;2.88;;;;;;;;;;5074936;28;20331;-62
2023/06/08 13:08:41;;;;;;;8.05;2.97;;;;;;;;;;5079885;28;20044;-62
2023/06/08 13:11:07;;;;;;;5.53;1.90;;;;;;;;;;5082554;28;20040;-62
2023/06/08 13:13:33;;;;;;;5.70;2.65;;;;;;;;;;5068072;28;20090;-62
2023/06/08 13:16:01;;;;;;;7.03;2.70;;;;;;;;;;5068568;28;20106;-62
2023/06/08 13:18:27;;;;;;;5.47;2.22;;;;;;;;;;5067652;28;20407;-62
2023/06/08 13:20:53;;;;;;;6.20;2.30;;;;;;;;;;5069041;28;20060;-63
2023/06/08 13:23:24;;;;;;;6.22;2.92;;;;;;;;;;5071314;28;20457;-62
2023/06/08 13:25:51;;;;;;;9.10;2.95;;;;;;;;;;5068691;28;20047;-62
2023/06/08 13:28:17;;;;;;;11.52;3.65;;;;;;;;;;5082635;28;20050;-62
2023/06/08 13:30:44;;;;;;;6.97;2.35;;;;;;;;;;5085074;28;20538;-62
2023/06/08 13:33:10;;;;;;;7.30;3.33;;;;;;;;;;5068541;28;20056;-62
2023/06/08 13:35:43;;;;;;;7.63;3.20;;;;;;;;;;5078286;28;20059;-62
2023/06/08 13:38:11;;;;;;;10.57;3.38;;;;;;;;;;5082832;28;20072;-62
2023/06/08 13:40:38;;;;;;;6.03;2.97;;;;;;;;;;5076487;28;20087;-62
2023/06/08 13:43:06;;;;;;;7.47;3.22;;;;;;;;;;5054767;28;20083;-62
2023/06/08 13:45:34;;;;;;;8.52;3.40;;;;;;;;;;5081073;28;20098;-62
2023/06/08 13:48:01;;;;;;;7.82;2.67;;;;;;;;;;5076040;28;20471;-62
2023/06/08 13:50:27;;;;;;;7.88;3.25;;;;;;;;;;5079897;28;20102;-62
2023/06/08 13:52:57;;;;;;;7.97;3.58;;;;;;;;;;5073970;28;20038;-62
2023/06/08 13:55:23;;;;;;;6.10;3.15;;;;;;;;;;5069801;28;20385;-63
2023/06/08 13:57:50;;;;;;;10.50;3.72;;;;;;;;;;5083375;28;20036;-61
2023/06/08 14:00:16;;;;;;;9.77;3.75;;;;;;;;;;5073289;28;20039;-62
2023/06/08 14:02:47;;;;;;;13.30;3.95;;;;;;;;;;5067936;28;20119;-62
2023/06/08 14:05:17;;;;;;;8.90;3.55;;;;;;;;;;5082604;28;20515;-62
2023/06/08 14:07:44;;;;;;;5.38;2.83;;;;;;;;;;5083527;28;20480;-62
2023/06/08 14:10:10;;;;;;;7.72;3.22;;;;;;;;;;5074159;28;20044;-62
2023/06/08 14:12:37;;;;;;;6.47;3.13;;;;;;;;;;5071271;28;20076;-62
2023/06/08 14:15:03;;;;;;;7.25;3.03;;;;;;;;;;5081316;28;20036;-61
2023/06/08 14:17:29;;;;;;;7.75;3.28;;;;;;;;;;5071756;28;20048;-62
2023/06/08 14:19:56;;;;;;;6.85;3.45;;;;;;;;;;5068429;28;20172;-63
2023/06/08 14:22:22;;;;;;;5.45;3.72;;;;;;;;;;5069963;28;20470;-63
2023/06/08 14:24:48;;;;;;;7.50;3.90;;;;;;;;;;5074421;28;20119;-63
2023/06/08 14:27:14;;;;;;;7.50;3.28;;;;;;;;;;5072386;28;20131;-63
2023/06/08 14:29:40;;;;;;;7.97;3.58;;;;;;;;;;5070060;28;20044;-63
2023/06/08 14:32:06;;;;;;;6.75;3.75;;;;;;;;;;5080375;28;20403;-63